sensor_id;sensor_type;location;lat;lon;timestamp;P1;durP1;ratioP1;P2;durP2;ratioP2
64653;SDS011;51065;48.884;12.598;2023-11-19T00:01:40;14.27;;;5.88;;
64653;SDS011;51065;48.884;12.598;2023-11-19T00:04:06;13.80;;;6.45;;
64653;SDS011;51065;48.884;12.598;2023-11-19T00:06:31;14.45;;;4.97;;
64653;SDS011;51065;48.884;12.598;2023-11-19T00:08:57;14.63;;;6.47;;
64653;SDS011;51065;48.884;12.598;2023-11-19T00:11:22;14.25;;;6.32;;
64653;SDS011;51065;48.884;12.598;2023-11-19T00:13:48;14.60;;;6.75;;
64653;SDS011;51065;48.884;12.598;2023-11-19T00:16:14;15.02;;;6.30;;
64653;SDS011;51065;48.884;12.598;2023-11-19T00:18:39;14.60;;;6.00;;
64653;SDS011;51065;48.884;12.598;2023-11-19T00:21:05;12.13;;;5.70;;
64653;SDS011;51065;48.884;12.598;2023-11-19T00:23:33;11.75;;;5.70;;
64653;SDS011;51065;48.884;12.598;2023-11-19T00:25:58;13.90;;;6.00;;
64653;SDS011;51065;48.884;12.598;2023-11-19T00:28:24;13.43;;;5.82;;
64653;SDS011;51065;48.884;12.598;2023-11-19T00:30:49;12.85;;;5.68;;
64653;SDS011;51065;48.884;12.598;2023-11-19T00:33:15;13.98;;;6.13;;
64653;SDS011;51065;48.884;12.598;2023-11-19T00:35:40;13.45;;;5.68;;
64653;SDS011;51065;48.884;12.598;2023-11-19T00:38:06;15.32;;;6.38;;
64653;SDS011;51065;48.884;12.598;2023-11-19T00:40:32;14.70;;;6.03;;
64653;SDS011;51065;48.884;12.598;2023-11-19T00:42:57;16.08;;;6.32;;
64653;SDS011;51065;48.884;12.598;2023-11-19T00:45:23;13.15;;;5.63;;
64653;SDS011;51065;48.884;12.598;2023-11-19T00:47:48;14.52;;;6.25;;
64653;SDS011;51065;48.884;12.598;2023-11-19T00:50:14;13.85;;;5.80;;
64653;SDS011;51065;48.884;12.598;2023-11-19T00:52:40;12.70;;;5.50;;
64653;SDS011;51065;48.884;12.598;2023-11-19T00:55:06;12.23;;;5.78;;
64653;SDS011;51065;48.884;12.598;2023-11-19T00:57:32;10.13;;;4.90;;
64653;SDS011;51065;48.884;12.598;2023-11-19T00:59:58;15.13;;;6.47;;
64653;SDS011;51065;48.884;12.598;2023-11-19T01:02:24;13.20;;;5.82;;
64653;SDS011;51065;48.884;12.598;2023-11-19T01:04:50;11.82;;;6.25;;
64653;SDS011;51065;48.884;12.598;2023-11-19T01:07:16;14.32;;;5.97;;
64653;SDS011;51065;48.884;12.598;2023-11-19T01:09:44;16.17;;;6.32;;
64653;SDS011;51065;48.884;12.598;2023-11-19T01:12:10;12.75;;;5.70;;
64653;SDS011;51065;48.884;12.598;2023-11-19T01:14:35;11.90;;;5.60;;
64653;SDS011;51065;48.884;12.598;2023-11-19T01:17:01;12.82;;;6.28;;
64653;SDS011;51065;48.884;12.598;2023-11-19T01:19:27;12.05;;;5.30;;
64653;SDS011;51065;48.884;12.598;2023-11-19T01:21:56;14.18;;;6.13;;
64653;SDS011;51065;48.884;12.598;2023-11-19T01:24:21;15.18;;;5.63;;
64653;SDS011;51065;48.884;12.598;2023-11-19T01:26:47;13.27;;;5.45;;
64653;SDS011;51065;48.884;12.598;2023-11-19T01:29:14;13.55;;;6.10;;
64653;SDS011;51065;48.884;12.598;2023-11-19T01:31:43;13.90;;;5.85;;
64653;SDS011;51065;48.884;12.598;2023-11-19T01:34:11;10.73;;;5.50;;
64653;SDS011;51065;48.884;12.598;2023-11-19T01:36:37;14.10;;;5.88;;
64653;SDS011;51065;48.884;12.598;2023-11-19T01:39:02;11.65;;;5.32;;
64653;SDS011;51065;48.884;12.598;2023-11-19T01:41:30;12.00;;;5.82;;
64653;SDS011;51065;48.884;12.598;2023-11-19T01:44:00;14.35;;;5.95;;
64653;SDS011;51065;48.884;12.598;2023-11-19T01:46:25;14.38;;;5.90;;
64653;SDS011;51065;48.884;12.598;2023-11-19T01:48:51;13.15;;;5.72;;
64653;SDS011;51065;48.884;12.598;2023-11-19T01:51:19;13.70;;;6.40;;
64653;SDS011;51065;48.884;12.598;2023-11-19T01:53:46;13.00;;;6.07;;
64653;SDS011;51065;48.884;12.598;2023-11-19T01:56:13;11.40;;;5.28;;
64653;SDS011;51065;48.884;12.598;2023-11-19T01:58:40;12.63;;;5.22;;
64653;SDS011;51065;48.884;12.598;2023-11-19T02:01:08;12.10;;;5.72;;
64653;SDS011;51065;48.884;12.598;2023-11-19T02:03:36;12.68;;;5.30;;
64653;SDS011;51065;48.884;12.598;2023-11-19T02:06:02;11.52;;;5.13;;
64653;SDS011;51065;48.884;12.598;2023-11-19T02:08:29;11.88;;;5.03;;
64653;SDS011;51065;48.884;12.598;2023-11-19T02:10:55;12.40;;;4.80;;
64653;SDS011;51065;48.884;12.598;2023-11-19T02:13:23;12.52;;;4.93;;
64653;SDS011;51065;48.884;12.598;2023-11-19T02:15:50;10.30;;;4.65;;
64653;SDS011;51065;48.884;12.598;2023-11-19T02:18:26;10.85;;;5.45;;
64653;SDS011;51065;48.884;12.598;2023-11-19T02:20:56;10.63;;;5.05;;
64653;SDS011;51065;48.884;12.598;2023-11-19T02:23:22;10.02;;;4.70;;
64653;SDS011;51065;48.884;12.598;2023-11-19T02:26:00;11.93;;;5.53;;
64653;SDS011;51065;48.884;12.598;2023-11-19T02:28:27;11.02;;;5.47;;
64653;SDS011;51065;48.884;12.598;2023-11-19T02:30:52;11.65;;;5.43;;
64653;SDS011;51065;48.884;12.598;2023-11-19T02:33:18;10.50;;;4.95;;
64653;SDS011;51065;48.884;12.598;2023-11-19T02:35:44;12.88;;;4.78;;
64653;SDS011;51065;48.884;12.598;2023-11-19T02:38:09;9.20;;;4.20;;
64653;SDS011;51065;48.884;12.598;2023-11-19T02:40:36;11.02;;;5.18;;
64653;SDS011;51065;48.884;12.598;2023-11-19T02:43:01;11.43;;;4.63;;
64653;SDS011;51065;48.884;12.598;2023-11-19T02:45:30;8.82;;;4.18;;
64653;SDS011;51065;48.884;12.598;2023-11-19T02:47:56;8.30;;;3.40;;
64653;SDS011;51065;48.884;12.598;2023-11-19T02:50:21;11.23;;;5.03;;
64653;SDS011;51065;48.884;12.598;2023-11-19T02:52:51;10.68;;;4.45;;
64653;SDS011;51065;48.884;12.598;2023-11-19T02:55:18;7.45;;;3.72;;
64653;SDS011;51065;48.884;12.598;2023-11-19T02:57:44;9.70;;;4.20;;
64653;SDS011;51065;48.884;12.598;2023-11-19T03:00:16;11.13;;;4.35;;
64653;SDS011;51065;48.884;12.598;2023-11-19T03:02:43;10.07;;;3.73;;
64653;SDS011;51065;48.884;12.598;2023-11-19T03:05:14;10.68;;;4.82;;
64653;SDS011;51065;48.884;12.598;2023-11-19T03:07:41;9.52;;;4.30;;
64653;SDS011;51065;48.884;12.598;2023-11-19T03:10:08;9.70;;;3.80;;
64653;SDS011;51065;48.884;12.598;2023-11-19T03:12:41;9.23;;;4.00;;
64653;SDS011;51065;48.884;12.598;2023-11-19T03:15:07;8.02;;;4.15;;
64653;SDS011;51065;48.884;12.598;2023-11-19T03:17:35;10.38;;;4.35;;
64653;SDS011;51065;48.884;12.598;2023-11-19T03:20:04;10.07;;;4.15;;
64653;SDS011;51065;48.884;12.598;2023-11-19T03:22:31;8.73;;;3.55;;
64653;SDS011;51065;48.884;12.598;2023-11-19T03:24:59;8.70;;;4.05;;
64653;SDS011;51065;48.884;12.598;2023-11-19T03:27:25;7.82;;;3.67;;
64653;SDS011;51065;48.884;12.598;2023-11-19T03:29:50;7.18;;;3.25;;
64653;SDS011;51065;48.884;12.598;2023-11-19T03:32:16;8.95;;;3.65;;
64653;SDS011;51065;48.884;12.598;2023-11-19T03:34:42;7.60;;;3.58;;
64653;SDS011;51065;48.884;12.598;2023-11-19T03:37:07;7.32;;;3.60;;
64653;SDS011;51065;48.884;12.598;2023-11-19T03:39:33;7.85;;;3.55;;
64653;SDS011;51065;48.884;12.598;2023-11-19T03:41:59;6.68;;;3.20;;
64653;SDS011;51065;48.884;12.598;2023-11-19T03:44:26;7.45;;;3.38;;
64653;SDS011;51065;48.884;12.598;2023-11-19T03:46:52;7.88;;;3.92;;
64653;SDS011;51065;48.884;12.598;2023-11-19T03:49:18;7.38;;;3.35;;
64653;SDS011;51065;48.884;12.598;2023-11-19T03:51:43;5.82;;;3.10;;
64653;SDS011;51065;48.884;12.598;2023-11-19T03:54:09;6.72;;;3.40;;
64653;SDS011;51065;48.884;12.598;2023-11-19T03:56:34;6.15;;;3.10;;
64653;SDS011;51065;48.884;12.598;2023-11-19T03:59:00;6.72;;;3.28;;
64653;SDS011;51065;48.884;12.598;2023-11-19T04:01:25;9.07;;;3.72;;
64653;SDS011;51065;48.884;12.598;2023-11-19T04:03:51;7.03;;;3.38;;
64653;SDS011;51065;48.884;12.598;2023-11-19T04:06:21;5.82;;;2.90;;
64653;SDS011;51065;48.884;12.598;2023-11-19T04:08:46;6.10;;;2.70;;
64653;SDS011;51065;48.884;12.598;2023-11-19T04:11:12;5.28;;;2.88;;
64653;SDS011;51065;48.884;12.598;2023-11-19T04:13:38;5.60;;;2.58;;
64653;SDS011;51065;48.884;12.598;2023-11-19T04:16:03;4.95;;;2.78;;
64653;SDS011;51065;48.884;12.598;2023-11-19T04:18:29;5.05;;;2.58;;
64653;SDS011;51065;48.884;12.598;2023-11-19T04:20:56;5.60;;;2.53;;
64653;SDS011;51065;48.884;12.598;2023-11-19T04:23:22;5.57;;;2.83;;
64653;SDS011;51065;48.884;12.598;2023-11-19T04:25:49;6.55;;;2.70;;
64653;SDS011;51065;48.884;12.598;2023-11-19T04:28:15;5.55;;;2.55;;
64653;SDS011;51065;48.884;12.598;2023-11-19T04:30:41;5.57;;;2.42;;
64653;SDS011;51065;48.884;12.598;2023-11-19T04:33:06;6.97;;;2.72;;
64653;SDS011;51065;48.884;12.598;2023-11-19T04:35:32;3.85;;;2.22;;
64653;SDS011;51065;48.884;12.598;2023-11-19T04:37:57;4.72;;;2.70;;
64653;SDS011;51065;48.884;12.598;2023-11-19T04:40:23;5.43;;;2.67;;
64653;SDS011;51065;48.884;12.598;2023-11-19T04:42:48;6.13;;;2.72;;
64653;SDS011;51065;48.884;12.598;2023-11-19T04:45:14;5.18;;;2.63;;
64653;SDS011;51065;48.884;12.598;2023-11-19T04:47:41;3.83;;;2.00;;
64653;SDS011;51065;48.884;12.598;2023-11-19T04:50:10;3.80;;;2.20;;
64653;SDS011;51065;48.884;12.598;2023-11-19T04:52:38;4.10;;;2.30;;
64653;SDS011;51065;48.884;12.598;2023-11-19T04:55:13;4.38;;;2.08;;
64653;SDS011;51065;48.884;12.598;2023-11-19T04:57:39;4.50;;;2.40;;
64653;SDS011;51065;48.884;12.598;2023-11-19T05:00:05;3.33;;;1.80;;
64653;SDS011;51065;48.884;12.598;2023-11-19T05:02:32;4.45;;;2.35;;
64653;SDS011;51065;48.884;12.598;2023-11-19T05:04:59;3.92;;;1.83;;
64653;SDS011;51065;48.884;12.598;2023-11-19T05:07:24;5.35;;;2.50;;
64653;SDS011;51065;48.884;12.598;2023-11-19T05:09:50;5.78;;;2.67;;
64653;SDS011;51065;48.884;12.598;2023-11-19T05:12:15;4.65;;;2.63;;
64653;SDS011;51065;48.884;12.598;2023-11-19T05:14:41;4.20;;;2.40;;
64653;SDS011;51065;48.884;12.598;2023-11-19T05:17:14;7.55;;;2.85;;
64653;SDS011;51065;48.884;12.598;2023-11-19T05:19:39;4.40;;;2.38;;
64653;SDS011;51065;48.884;12.598;2023-11-19T05:22:05;4.40;;;2.47;;
64653;SDS011;51065;48.884;12.598;2023-11-19T05:24:32;5.15;;;2.60;;
64653;SDS011;51065;48.884;12.598;2023-11-19T05:26:58;3.40;;;2.08;;
64653;SDS011;51065;48.884;12.598;2023-11-19T05:29:23;3.78;;;2.38;;
64653;SDS011;51065;48.884;12.598;2023-11-19T05:31:49;4.35;;;2.30;;
64653;SDS011;51065;48.884;12.598;2023-11-19T05:34:15;3.90;;;2.00;;
64653;SDS011;51065;48.884;12.598;2023-11-19T05:36:40;3.38;;;2.30;;
64653;SDS011;51065;48.884;12.598;2023-11-19T05:39:06;3.20;;;2.03;;
64653;SDS011;51065;48.884;12.598;2023-11-19T05:41:31;4.05;;;2.22;;
64653;SDS011;51065;48.884;12.598;2023-11-19T05:43:57;4.55;;;2.67;;
64653;SDS011;51065;48.884;12.598;2023-11-19T05:46:22;4.28;;;2.17;;
64653;SDS011;51065;48.884;12.598;2023-11-19T05:48:50;3.00;;;1.85;;
64653;SDS011;51065;48.884;12.598;2023-11-19T05:51:16;5.00;;;2.08;;
64653;SDS011;51065;48.884;12.598;2023-11-19T05:53:42;4.50;;;1.92;;
64653;SDS011;51065;48.884;12.598;2023-11-19T05:56:08;5.68;;;2.50;;
64653;SDS011;51065;48.884;12.598;2023-11-19T05:58:34;3.63;;;1.85;;
64653;SDS011;51065;48.884;12.598;2023-11-19T06:01:01;4.13;;;2.20;;
64653;SDS011;51065;48.884;12.598;2023-11-19T06:03:26;3.95;;;2.13;;
64653;SDS011;51065;48.884;12.598;2023-11-19T06:05:52;5.05;;;2.63;;
64653;SDS011;51065;48.884;12.598;2023-11-19T06:08:19;3.90;;;2.30;;
64653;SDS011;51065;48.884;12.598;2023-11-19T06:10:46;4.45;;;2.00;;
64653;SDS011;51065;48.884;12.598;2023-11-19T06:13:14;4.25;;;2.30;;
64653;SDS011;51065;48.884;12.598;2023-11-19T06:15:43;3.88;;;2.35;;
64653;SDS011;51065;48.884;12.598;2023-11-19T06:18:09;4.18;;;2.25;;
64653;SDS011;51065;48.884;12.598;2023-11-19T06:20:36;4.47;;;2.33;;
64653;SDS011;51065;48.884;12.598;2023-11-19T06:23:02;4.07;;;2.03;;
64653;SDS011;51065;48.884;12.598;2023-11-19T06:25:27;5.03;;;2.80;;
64653;SDS011;51065;48.884;12.598;2023-11-19T06:27:53;5.00;;;2.50;;
64653;SDS011;51065;48.884;12.598;2023-11-19T06:30:19;6.15;;;2.92;;
64653;SDS011;51065;48.884;12.598;2023-11-19T06:32:48;6.82;;;3.05;;
64653;SDS011;51065;48.884;12.598;2023-11-19T06:35:14;4.85;;;2.50;;
64653;SDS011;51065;48.884;12.598;2023-11-19T06:37:39;4.85;;;2.78;;
64653;SDS011;51065;48.884;12.598;2023-11-19T06:40:06;5.00;;;2.30;;
64653;SDS011;51065;48.884;12.598;2023-11-19T06:42:34;4.85;;;2.47;;
64653;SDS011;51065;48.884;12.598;2023-11-19T06:45:00;4.10;;;2.20;;
64653;SDS011;51065;48.884;12.598;2023-11-19T06:47:26;3.78;;;2.20;;
64653;SDS011;51065;48.884;12.598;2023-11-19T06:49:53;3.67;;;2.22;;
64653;SDS011;51065;48.884;12.598;2023-11-19T06:52:18;3.47;;;1.98;;
64653;SDS011;51065;48.884;12.598;2023-11-19T06:54:44;3.92;;;2.10;;
64653;SDS011;51065;48.884;12.598;2023-11-19T06:57:13;5.85;;;2.42;;
64653;SDS011;51065;48.884;12.598;2023-11-19T06:59:39;4.03;;;2.28;;
64653;SDS011;51065;48.884;12.598;2023-11-19T07:02:05;5.95;;;2.70;;
64653;SDS011;51065;48.884;12.598;2023-11-19T07:04:31;3.40;;;2.10;;
64653;SDS011;51065;48.884;12.598;2023-11-19T07:06:58;3.90;;;2.45;;
64653;SDS011;51065;48.884;12.598;2023-11-19T07:09:24;5.03;;;2.20;;
64653;SDS011;51065;48.884;12.598;2023-11-19T07:11:50;3.42;;;2.13;;
64653;SDS011;51065;48.884;12.598;2023-11-19T07:14:17;4.55;;;2.72;;
64653;SDS011;51065;48.884;12.598;2023-11-19T07:16:43;6.28;;;2.45;;
64653;SDS011;51065;48.884;12.598;2023-11-19T07:19:09;5.90;;;2.80;;
64653;SDS011;51065;48.884;12.598;2023-11-19T07:21:35;3.85;;;2.20;;
64653;SDS011;51065;48.884;12.598;2023-11-19T07:24:04;4.03;;;2.05;;
64653;SDS011;51065;48.884;12.598;2023-11-19T07:26:30;6.05;;;2.85;;
64653;SDS011;51065;48.884;12.598;2023-11-19T07:28:56;5.03;;;2.45;;
64653;SDS011;51065;48.884;12.598;2023-11-19T07:31:22;4.03;;;2.33;;
64653;SDS011;51065;48.884;12.598;2023-11-19T07:33:49;4.72;;;2.30;;
64653;SDS011;51065;48.884;12.598;2023-11-19T07:36:14;4.53;;;2.78;;
64653;SDS011;51065;48.884;12.598;2023-11-19T07:38:40;4.75;;;2.60;;
64653;SDS011;51065;48.884;12.598;2023-11-19T07:41:06;4.78;;;2.30;;
64653;SDS011;51065;48.884;12.598;2023-11-19T07:43:32;4.15;;;2.33;;
64653;SDS011;51065;48.884;12.598;2023-11-19T07:45:58;6.43;;;2.72;;
64653;SDS011;51065;48.884;12.598;2023-11-19T07:48:24;5.47;;;2.80;;
64653;SDS011;51065;48.884;12.598;2023-11-19T07:50:51;5.78;;;2.97;;
64653;SDS011;51065;48.884;12.598;2023-11-19T07:53:17;6.03;;;2.65;;
64653;SDS011;51065;48.884;12.598;2023-11-19T07:55:43;4.72;;;2.58;;
64653;SDS011;51065;48.884;12.598;2023-11-19T07:58:10;4.72;;;2.28;;
64653;SDS011;51065;48.884;12.598;2023-11-19T08:00:36;5.55;;;2.58;;
64653;SDS011;51065;48.884;12.598;2023-11-19T08:03:02;7.75;;;2.92;;
64653;SDS011;51065;48.884;12.598;2023-11-19T08:05:29;6.38;;;2.80;;
64653;SDS011;51065;48.884;12.598;2023-11-19T08:07:56;5.25;;;2.63;;
64653;SDS011;51065;48.884;12.598;2023-11-19T08:10:22;6.30;;;2.63;;
64653;SDS011;51065;48.884;12.598;2023-11-19T08:12:47;3.70;;;2.33;;
64653;SDS011;51065;48.884;12.598;2023-11-19T08:15:13;4.82;;;2.22;;
64653;SDS011;51065;48.884;12.598;2023-11-19T08:17:39;3.53;;;2.00;;
64653;SDS011;51065;48.884;12.598;2023-11-19T08:20:05;6.55;;;2.40;;
64653;SDS011;51065;48.884;12.598;2023-11-19T08:22:38;4.43;;;2.47;;
64653;SDS011;51065;48.884;12.598;2023-11-19T08:25:04;4.57;;;2.17;;
64653;SDS011;51065;48.884;12.598;2023-11-19T08:27:30;2.45;;;1.63;;
64653;SDS011;51065;48.884;12.598;2023-11-19T08:29:56;3.97;;;2.08;;
64653;SDS011;51065;48.884;12.598;2023-11-19T08:32:28;4.65;;;2.30;;
64653;SDS011;51065;48.884;12.598;2023-11-19T08:34:53;3.60;;;2.00;;
64653;SDS011;51065;48.884;12.598;2023-11-19T08:37:19;4.72;;;2.40;;
64653;SDS011;51065;48.884;12.598;2023-11-19T08:39:47;3.25;;;1.85;;
64653;SDS011;51065;48.884;12.598;2023-11-19T08:42:13;2.83;;;1.90;;
64653;SDS011;51065;48.884;12.598;2023-11-19T08:44:39;4.00;;;2.13;;
64653;SDS011;51065;48.884;12.598;2023-11-19T08:47:08;4.10;;;2.10;;
64653;SDS011;51065;48.884;12.598;2023-11-19T08:49:34;5.82;;;2.33;;
64653;SDS011;51065;48.884;12.598;2023-11-19T08:52:00;5.13;;;2.22;;
64653;SDS011;51065;48.884;12.598;2023-11-19T08:54:28;2.45;;;1.60;;
64653;SDS011;51065;48.884;12.598;2023-11-19T08:56:54;4.30;;;1.92;;
64653;SDS011;51065;48.884;12.598;2023-11-19T08:59:19;3.38;;;1.92;;
64653;SDS011;51065;48.884;12.598;2023-11-19T09:01:45;4.07;;;1.92;;
64653;SDS011;51065;48.884;12.598;2023-11-19T09:04:10;4.70;;;2.35;;
64653;SDS011;51065;48.884;12.598;2023-11-19T09:06:36;2.65;;;1.67;;
64653;SDS011;51065;48.884;12.598;2023-11-19T09:09:02;4.68;;;2.30;;
64653;SDS011;51065;48.884;12.598;2023-11-19T09:11:28;2.70;;;1.50;;
64653;SDS011;51065;48.884;12.598;2023-11-19T09:13:55;2.00;;;1.30;;
64653;SDS011;51065;48.884;12.598;2023-11-19T09:16:20;1.35;;;1.10;;
64653;SDS011;51065;48.884;12.598;2023-11-19T09:18:46;2.70;;;1.50;;
64653;SDS011;51065;48.884;12.598;2023-11-19T09:21:12;1.27;;;0.90;;
64653;SDS011;51065;48.884;12.598;2023-11-19T09:23:38;1.40;;;1.27;;
64653;SDS011;51065;48.884;12.598;2023-11-19T09:26:07;1.73;;;1.33;;
64653;SDS011;51065;48.884;12.598;2023-11-19T09:28:35;1.95;;;1.25;;
64653;SDS011;51065;48.884;12.598;2023-11-19T09:31:01;1.15;;;0.93;;
64653;SDS011;51065;48.884;12.598;2023-11-19T09:33:30;1.50;;;1.13;;
64653;SDS011;51065;48.884;12.598;2023-11-19T09:35:55;1.63;;;1.30;;
64653;SDS011;51065;48.884;12.598;2023-11-19T09:38:21;3.38;;;1.20;;
64653;SDS011;51065;48.884;12.598;2023-11-19T09:40:47;17.55;;;8.70;;
64653;SDS011;51065;48.884;12.598;2023-11-19T09:43:13;6.63;;;3.40;;
64653;SDS011;51065;48.884;12.598;2023-11-19T09:45:48;2.90;;;1.98;;
64653;SDS011;51065;48.884;12.598;2023-11-19T09:48:17;0.90;;;0.70;;
64653;SDS011;51065;48.884;12.598;2023-11-19T09:50:44;2.33;;;1.45;;
64653;SDS011;51065;48.884;12.598;2023-11-19T09:53:13;1.47;;;1.20;;
64653;SDS011;51065;48.884;12.598;2023-11-19T09:55:40;1.63;;;1.10;;
64653;SDS011;51065;48.884;12.598;2023-11-19T09:58:06;2.10;;;1.10;;
64653;SDS011;51065;48.884;12.598;2023-11-19T10:00:33;2.33;;;1.27;;
64653;SDS011;51065;48.884;12.598;2023-11-19T10:02:59;1.20;;;0.77;;
64653;SDS011;51065;48.884;12.598;2023-11-19T10:05:25;2.33;;;1.20;;
64653;SDS011;51065;48.884;12.598;2023-11-19T10:07:51;1.10;;;0.93;;
64653;SDS011;51065;48.884;12.598;2023-11-19T10:10:17;1.85;;;1.00;;
64653;SDS011;51065;48.884;12.598;2023-11-19T10:12:47;1.35;;;0.93;;
64653;SDS011;51065;48.884;12.598;2023-11-19T10:15:21;1.63;;;1.02;;
64653;SDS011;51065;48.884;12.598;2023-11-19T10:17:49;1.40;;;0.85;;
64653;SDS011;51065;48.884;12.598;2023-11-19T10:20:16;1.20;;;0.80;;
64653;SDS011;51065;48.884;12.598;2023-11-19T10:22:42;1.40;;;0.95;;
64653;SDS011;51065;48.884;12.598;2023-11-19T10:25:27;1.50;;;1.00;;
64653;SDS011;51065;48.884;12.598;2023-11-19T10:27:53;1.58;;;1.30;;
64653;SDS011;51065;48.884;12.598;2023-11-19T10:30:23;1.27;;;1.17;;
64653;SDS011;51065;48.884;12.598;2023-11-19T10:35:31;4.65;;;1.80;;
64653;SDS011;51065;48.884;12.598;2023-11-19T10:37:58;3.95;;;1.55;;
64653;SDS011;51065;48.884;12.598;2023-11-19T10:40:37;3.17;;;1.63;;
64653;SDS011;51065;48.884;12.598;2023-11-19T10:43:04;1.88;;;0.90;;
64653;SDS011;51065;48.884;12.598;2023-11-19T10:45:31;1.15;;;1.05;;
64653;SDS011;51065;48.884;12.598;2023-11-19T10:47:58;2.55;;;1.20;;
64653;SDS011;51065;48.884;12.598;2023-11-19T10:50:25;1.65;;;1.10;;
64653;SDS011;51065;48.884;12.598;2023-11-19T10:52:53;2.35;;;1.20;;
64653;SDS011;51065;48.884;12.598;2023-11-19T10:55:28;2.97;;;1.38;;
64653;SDS011;51065;48.884;12.598;2023-11-19T10:58:02;0.70;;;0.70;;
64653;SDS011;51065;48.884;12.598;2023-11-19T11:00:29;0.90;;;0.70;;
64653;SDS011;51065;48.884;12.598;2023-11-19T11:03:01;1.00;;;0.73;;
64653;SDS011;51065;48.884;12.598;2023-11-19T11:05:32;2.47;;;1.75;;
64653;SDS011;51065;48.884;12.598;2023-11-19T11:08:01;4.47;;;2.38;;
64653;SDS011;51065;48.884;12.598;2023-11-19T11:10:30;2.42;;;1.45;;
64653;SDS011;51065;48.884;12.598;2023-11-19T11:13:02;2.47;;;1.30;;
64653;SDS011;51065;48.884;12.598;2023-11-19T11:15:28;1.42;;;1.08;;
64653;SDS011;51065;48.884;12.598;2023-11-19T11:17:57;15.85;;;5.97;;
64653;SDS011;51065;48.884;12.598;2023-11-19T11:20:30;13.95;;;3.42;;
64653;SDS011;51065;48.884;12.598;2023-11-19T11:37:19;3.42;;;1.75;;
64653;SDS011;51065;48.884;12.598;2023-11-19T11:39:51;7.47;;;2.70;;
64653;SDS011;51065;48.884;12.598;2023-11-19T11:55:24;3.85;;;1.80;;
64653;SDS011;51065;48.884;12.598;2023-11-19T11:57:50;6.18;;;2.58;;
64653;SDS011;51065;48.884;12.598;2023-11-19T12:00:26;2.40;;;2.08;;
64653;SDS011;51065;48.884;12.598;2023-11-19T12:02:52;3.58;;;2.20;;
64653;SDS011;51065;48.884;12.598;2023-11-19T12:05:24;4.50;;;2.17;;
64653;SDS011;51065;48.884;12.598;2023-11-19T12:07:56;5.20;;;2.55;;
64653;SDS011;51065;48.884;12.598;2023-11-19T12:10:26;4.13;;;1.60;;
64653;SDS011;51065;48.884;12.598;2023-11-19T12:12:59;1.55;;;1.13;;
64653;SDS011;51065;48.884;12.598;2023-11-19T12:15:25;0.55;;;0.55;;
64653;SDS011;51065;48.884;12.598;2023-11-19T12:17:53;0.90;;;0.70;;
64653;SDS011;51065;48.884;12.598;2023-11-19T12:20:20;0.98;;;0.70;;
64653;SDS011;51065;48.884;12.598;2023-11-19T12:22:49;1.35;;;0.60;;
64653;SDS011;51065;48.884;12.598;2023-11-19T12:25:16;1.95;;;1.40;;
64653;SDS011;51065;48.884;12.598;2023-11-19T12:27:49;1.80;;;1.00;;
64653;SDS011;51065;48.884;12.598;2023-11-19T12:30:22;1.38;;;1.00;;
64653;SDS011;51065;48.884;12.598;2023-11-19T12:32:51;1.23;;;1.10;;
64653;SDS011;51065;48.884;12.598;2023-11-19T12:35:21;1.42;;;1.00;;
64653;SDS011;51065;48.884;12.598;2023-11-19T12:37:50;1.65;;;1.02;;
64653;SDS011;51065;48.884;12.598;2023-11-19T12:40:18;1.40;;;1.10;;
64653;SDS011;51065;48.884;12.598;2023-11-19T12:42:54;1.15;;;0.80;;
64653;SDS011;51065;48.884;12.598;2023-11-19T12:45:20;1.92;;;0.82;;
64653;SDS011;51065;48.884;12.598;2023-11-19T12:47:48;1.15;;;0.88;;
64653;SDS011;51065;48.884;12.598;2023-11-19T12:50:14;0.93;;;0.70;;
64653;SDS011;51065;48.884;12.598;2023-11-19T12:52:57;2.55;;;1.70;;
64653;SDS011;51065;48.884;12.598;2023-11-19T12:55:27;2.20;;;1.40;;
64653;SDS011;51065;48.884;12.598;2023-11-19T12:57:54;1.50;;;0.95;;
64653;SDS011;51065;48.884;12.598;2023-11-19T13:00:24;2.60;;;0.90;;
64653;SDS011;51065;48.884;12.598;2023-11-19T13:02:55;1.10;;;0.90;;
64653;SDS011;51065;48.884;12.598;2023-11-19T13:10:26;1.35;;;1.25;;
64653;SDS011;51065;48.884;12.598;2023-11-19T13:13:05;3.92;;;1.85;;
64653;SDS011;51065;48.884;12.598;2023-11-19T13:15:33;2.05;;;1.48;;
64653;SDS011;51065;48.884;12.598;2023-11-19T13:17:59;5.68;;;1.90;;
64653;SDS011;51065;48.884;12.598;2023-11-19T13:20:27;3.33;;;2.05;;
64653;SDS011;51065;48.884;12.598;2023-11-19T13:22:59;2.88;;;2.10;;
64653;SDS011;51065;48.884;12.598;2023-11-19T13:25:27;2.92;;;1.77;;
64653;SDS011;51065;48.884;12.598;2023-11-19T13:27:53;2.42;;;1.70;;
64653;SDS011;51065;48.884;12.598;2023-11-19T13:30:19;2.38;;;1.75;;
64653;SDS011;51065;48.884;12.598;2023-11-19T13:32:45;3.70;;;1.90;;
64653;SDS011;51065;48.884;12.598;2023-11-19T13:35:11;4.10;;;2.45;;
64653;SDS011;51065;48.884;12.598;2023-11-19T13:37:38;4.80;;;2.78;;
64653;SDS011;51065;48.884;12.598;2023-11-19T13:40:04;4.10;;;2.25;;
64653;SDS011;51065;48.884;12.598;2023-11-19T13:42:31;3.22;;;2.22;;
64653;SDS011;51065;48.884;12.598;2023-11-19T13:44:57;3.05;;;2.20;;
64653;SDS011;51065;48.884;12.598;2023-11-19T13:47:22;3.22;;;2.05;;
64653;SDS011;51065;48.884;12.598;2023-11-19T13:49:48;3.20;;;2.15;;
64653;SDS011;51065;48.884;12.598;2023-11-19T13:52:14;3.47;;;1.95;;
64653;SDS011;51065;48.884;12.598;2023-11-19T13:54:40;5.60;;;3.17;;
64653;SDS011;51065;48.884;12.598;2023-11-19T13:57:06;3.10;;;2.05;;
64653;SDS011;51065;48.884;12.598;2023-11-19T13:59:31;3.42;;;1.90;;
64653;SDS011;51065;48.884;12.598;2023-11-19T14:01:57;4.50;;;1.95;;
64653;SDS011;51065;48.884;12.598;2023-11-19T14:04:23;3.92;;;2.10;;
64653;SDS011;51065;48.884;12.598;2023-11-19T14:06:49;2.83;;;1.90;;
64653;SDS011;51065;48.884;12.598;2023-11-19T14:09:14;4.00;;;2.17;;
64653;SDS011;51065;48.884;12.598;2023-11-19T14:11:40;5.85;;;2.70;;
64653;SDS011;51065;48.884;12.598;2023-11-19T14:14:07;6.20;;;2.47;;
64653;SDS011;51065;48.884;12.598;2023-11-19T14:16:33;7.07;;;3.10;;
64653;SDS011;51065;48.884;12.598;2023-11-19T14:18:59;4.72;;;2.53;;
64653;SDS011;51065;48.884;12.598;2023-11-19T14:21:24;4.68;;;2.60;;
64653;SDS011;51065;48.884;12.598;2023-11-19T14:23:51;5.22;;;2.10;;
64653;SDS011;51065;48.884;12.598;2023-11-19T14:26:17;4.13;;;2.67;;
64653;SDS011;51065;48.884;12.598;2023-11-19T14:28:43;4.95;;;2.60;;
64653;SDS011;51065;48.884;12.598;2023-11-19T14:31:09;4.60;;;2.60;;
64653;SDS011;51065;48.884;12.598;2023-11-19T14:33:34;3.63;;;2.45;;
64653;SDS011;51065;48.884;12.598;2023-11-19T14:36:01;5.28;;;2.88;;
64653;SDS011;51065;48.884;12.598;2023-11-19T14:38:27;5.60;;;2.45;;
64653;SDS011;51065;48.884;12.598;2023-11-19T14:40:52;4.75;;;2.70;;
64653;SDS011;51065;48.884;12.598;2023-11-19T14:43:19;5.78;;;2.60;;
64653;SDS011;51065;48.884;12.598;2023-11-19T14:45:45;4.38;;;2.60;;
64653;SDS011;51065;48.884;12.598;2023-11-19T14:48:10;7.85;;;3.20;;
64653;SDS011;51065;48.884;12.598;2023-11-19T14:50:39;4.82;;;3.10;;
64653;SDS011;51065;48.884;12.598;2023-11-19T14:53:04;9.13;;;4.30;;
64653;SDS011;51065;48.884;12.598;2023-11-19T14:55:30;7.68;;;3.97;;
64653;SDS011;51065;48.884;12.598;2023-11-19T14:57:56;8.90;;;4.40;;
64653;SDS011;51065;48.884;12.598;2023-11-19T15:00:22;7.07;;;3.90;;
64653;SDS011;51065;48.884;12.598;2023-11-19T15:02:47;6.43;;;3.25;;
64653;SDS011;51065;48.884;12.598;2023-11-19T15:05:13;11.43;;;4.28;;